createdAt,value
2019-03-19T00:01:01.948Z,27.50
2019-03-19T00:03:31.496Z,27.53
2019-03-19T00:06:06.818Z,26.87
2019-03-19T00:08:38.445Z,27.90
2019-03-19T00:11:07.917Z,28.00
2019-03-19T00:13:41.460Z,27.23
2019-03-19T00:16:13.429Z,27.87
2019-03-19T00:18:43.937Z,28.73
2019-03-19T00:21:13.166Z,28.93
2019-03-19T00:23:46.308Z,28.80
2019-03-19T00:26:18.598Z,28.40
2019-03-19T00:28:50.865Z,29.23
2019-03-19T00:31:21.158Z,28.20
2019-03-19T00:33:52.814Z,28.07
2019-03-19T00:36:24.764Z,28.07
2019-03-19T00:38:58.633Z,29.17
2019-03-19T00:41:27.824Z,28.33
2019-03-19T00:43:59.277Z,28.07
2019-03-19T00:46:29.588Z,29.60
2019-03-19T00:48:58.632Z,29.77
2019-03-19T00:51:30.674Z,28.80
2019-03-19T00:54:01.866Z,28.60
2019-03-19T00:56:30.951Z,28.57
2019-03-19T00:58:59.984Z,27.87
2019-03-19T01:01:38.885Z,29.33
2019-03-19T01:04:08.923Z,29.53
2019-03-19T01:06:39.714Z,29.73
2019-03-19T01:09:21.611Z,28.60
2019-03-19T01:11:53.749Z,30.13
2019-03-19T01:14:23.248Z,29.13
2019-03-19T01:16:54.480Z,29.33
2019-03-19T01:19:25.490Z,28.97
2019-03-19T01:24:54.540Z,29.47
2019-03-19T01:27:49.698Z,28.70
2019-03-19T01:30:19.934Z,27.23
2019-03-19T01:32:49.283Z,28.00
2019-03-19T01:35:18.315Z,26.97
2019-03-19T01:38:07.206Z,27.80
2019-03-19T01:40:38.055Z,25.57
2019-03-19T01:43:06.907Z,26.73
2019-03-19T01:45:39.024Z,25.67
2019-03-19T01:48:12.082Z,23.37
2019-03-19T01:51:02.996Z,23.37
2019-03-19T01:56:36.139Z,21.10
2019-03-19T01:59:05.530Z,21.27
2019-03-19T02:01:53.213Z,19.73
2019-03-19T02:04:23.908Z,20.27
2019-03-19T02:06:53.212Z,19.20
2019-03-19T02:09:24.183Z,18.90
2019-03-19T02:11:53.665Z,17.83
2019-03-19T02:14:23.677Z,17.73
2019-03-19T02:16:53.362Z,18.37
2019-03-19T02:19:40.404Z,16.73
2019-03-19T02:22:16.875Z,16.00
2019-03-19T02:24:49.996Z,15.73
2019-03-19T02:27:18.837Z,17.50
2019-03-19T02:30:09.046Z,15.27
2019-03-19T02:32:39.014Z,15.73
2019-03-19T02:35:08.748Z,14.83
2019-03-19T02:37:39.953Z,15.13
2019-03-19T02:40:29.155Z,14.80
2019-03-19T02:42:59.411Z,14.00
2019-03-19T02:45:38.339Z,13.70
2019-03-19T02:48:07.431Z,13.03
2019-03-19T02:50:55.096Z,12.97
2019-03-19T02:53:40.274Z,12.80
2019-03-19T02:56:10.286Z,12.83
2019-03-19T02:58:43.474Z,12.67
2019-03-19T03:01:17.985Z,12.27
2019-03-19T03:03:50.179Z,11.93
2019-03-19T03:06:52.304Z,11.60
2019-03-19T03:09:29.087Z,12.93
2019-03-19T03:12:15.067Z,12.20
2019-03-19T03:14:31.689Z,12.17
2019-03-19T03:17:01.191Z,11.77
2019-03-19T03:19:30.763Z,11.67
2019-03-19T03:22:20.812Z,11.27
2019-03-19T03:24:51.509Z,11.30
2019-03-19T03:27:22.008Z,10.53
2019-03-19T03:30:25.480Z,10.70
2019-03-19T03:33:00.457Z,10.60
2019-03-19T03:35:47.704Z,10.60
2019-03-19T03:38:16.742Z,9.50
2019-03-19T03:40:50.698Z,10.07
2019-03-19T03:43:48.413Z,10.13
2019-03-19T03:46:24.053Z,9.00
2019-03-19T03:48:54.136Z,10.03
2019-03-19T03:51:28.628Z,10.20
2019-03-19T03:54:02.450Z,8.40
2019-03-19T03:57:18.690Z,8.33
2019-03-19T03:59:02.408Z,8.63
2019-03-19T04:02:03.777Z,8.50
2019-03-19T04:04:24.180Z,7.87
2019-03-19T04:06:55.436Z,8.07
2019-03-19T04:09:30.958Z,8.03
2019-03-19T04:12:00.770Z,7.80
2019-03-19T04:14:34.659Z,7.80
2019-03-19T04:17:03.922Z,7.30
2019-03-19T04:19:52.071Z,7.10
2019-03-19T04:22:21.224Z,7.70
2019-03-19T04:25:08.666Z,7.20
2019-03-19T04:27:40.571Z,7.27
2019-03-19T04:30:14.063Z,7.13
2019-03-19T04:32:54.225Z,7.30
2019-03-19T04:35:42.751Z,6.83
2019-03-19T04:38:19.683Z,7.03
2019-03-19T04:40:49.746Z,6.43
2019-03-19T04:43:31.429Z,6.33
2019-03-19T04:46:06.887Z,6.40
2019-03-19T04:48:39.562Z,6.20
2019-03-19T04:51:11.914Z,6.40
2019-03-19T04:53:49.785Z,5.53
2019-03-19T04:56:35.822Z,5.87
2019-03-19T04:59:31.843Z,5.87
2019-03-19T05:02:01.036Z,5.70
2019-03-19T05:04:30.412Z,5.40
2019-03-19T05:07:00.053Z,5.53
2019-03-19T05:09:29.268Z,6.00
2019-03-19T05:12:00.097Z,5.60
2019-03-19T05:14:31.983Z,5.80
2019-03-19T05:17:11.204Z,4.63
2019-03-19T05:19:40.423Z,4.27
2019-03-19T05:22:18.177Z,5.20
2019-03-19T05:24:48.471Z,5.20
2019-03-19T05:27:25.053Z,4.90
2019-03-19T05:29:56.363Z,4.97
2019-03-19T05:32:26.474Z,5.10
2019-03-19T05:35:02.916Z,4.33
2019-03-19T05:37:31.797Z,4.40
2019-03-19T05:40:02.718Z,4.80
2019-03-19T05:42:36.646Z,4.40
2019-03-19T05:45:13.399Z,4.60
2019-03-19T05:47:42.775Z,4.77
2019-03-19T05:50:11.967Z,5.03
2019-03-19T05:52:40.906Z,5.20
2019-03-19T05:55:12.441Z,5.57
2019-03-19T05:57:49.618Z,5.60
2019-03-19T06:00:17.375Z,6.60
2019-03-19T06:05:49.746Z,8.00
2019-03-19T06:08:23.108Z,8.93
2019-03-19T06:10:52.868Z,8.83
2019-03-19T06:13:21.893Z,9.67
2019-03-19T06:15:53.608Z,10.03
2019-03-19T06:18:34.331Z,9.97
2019-03-19T06:21:03.264Z,10.80
2019-03-19T06:23:32.270Z,11.40
2019-03-19T06:26:01.151Z,11.17
2019-03-19T06:28:50.303Z,12.37
2019-03-19T06:31:19.696Z,12.23
2019-03-19T06:33:55.287Z,12.80
2019-03-19T06:36:30.223Z,13.03
2019-03-19T06:39:14.435Z,13.30
2019-03-19T06:41:47.113Z,14.77
2019-03-19T06:44:38.049Z,15.13
2019-03-19T06:46:58.457Z,16.57
2019-03-19T06:49:27.750Z,17.40
2019-03-19T06:51:56.719Z,19.30
2019-03-19T06:54:35.143Z,19.57
2019-03-19T06:57:04.616Z,20.43
2019-03-19T06:59:33.755Z,22.13
2019-03-19T07:02:02.915Z,23.00
2019-03-19T07:04:32.337Z,24.47
2019-03-19T07:07:01.210Z,24.47
2019-03-19T07:09:53.574Z,24.33
2019-03-19T07:12:28.676Z,24.87
2019-03-19T07:14:58.163Z,25.73
2019-03-19T07:17:29.143Z,26.43
2019-03-19T07:20:07.964Z,26.03
2019-03-19T07:22:41.305Z,27.50
2019-03-19T07:25:10.532Z,27.97
2019-03-19T07:27:43.111Z,27.50
2019-03-19T07:30:14.223Z,27.10
2019-03-19T07:32:43.711Z,28.03
2019-03-19T07:35:15.995Z,28.83
2019-03-19T07:37:48.955Z,29.07
2019-03-19T07:40:18.359Z,28.30
2019-03-19T07:42:47.254Z,29.73
2019-03-19T07:45:27.419Z,29.57
2019-03-19T07:47:58.726Z,31.07
2019-03-19T07:50:49.460Z,31.73
2019-03-19T07:53:18.768Z,32.90
2019-03-19T07:55:49.755Z,32.33
2019-03-19T07:58:19.595Z,32.47
2019-03-19T08:00:52.406Z,31.93
2019-03-19T08:03:22.523Z,31.00
2019-03-19T08:05:52.015Z,32.30
2019-03-19T08:08:21.452Z,33.03
2019-03-19T08:10:50.795Z,32.10
2019-03-19T08:13:23.163Z,32.80
2019-03-19T08:15:57.029Z,32.87
2019-03-19T08:18:48.179Z,33.70
2019-03-19T08:21:17.641Z,35.23
2019-03-19T08:23:48.368Z,33.57
2019-03-19T08:26:24.434Z,35.40
2019-03-19T08:29:13.021Z,33.87
2019-03-19T08:34:37.491Z,34.10
2019-03-19T08:37:06.622Z,33.10
2019-03-19T08:39:36.627Z,33.73
2019-03-19T08:42:11.059Z,33.07
2019-03-19T08:44:48.300Z,33.47
2019-03-19T08:47:38.412Z,32.53
2019-03-19T08:50:10.163Z,31.83
2019-03-19T08:52:40.916Z,31.40
2019-03-19T08:58:22.705Z,31.40
2019-03-19T09:00:53.911Z,31.20
2019-03-19T09:03:28.904Z,31.20
2019-03-19T09:06:04.194Z,30.50
2019-03-19T09:08:36.239Z,29.13
2019-03-19T09:11:16.304Z,29.33
2019-03-19T09:13:49.352Z,30.30
2019-03-19T09:16:20.708Z,31.43
2019-03-19T09:18:54.333Z,30.13
2019-03-19T09:21:26.557Z,30.80
2019-03-19T09:23:56.246Z,30.50
2019-03-19T09:26:44.854Z,30.00
2019-03-19T09:29:21.630Z,30.47
2019-03-19T09:31:54.926Z,29.40
2019-03-19T09:34:27.009Z,29.53
2019-03-19T09:37:13.280Z,30.43
2019-03-19T09:39:43.019Z,28.53
2019-03-19T09:45:03.135Z,31.50
2019-03-19T09:47:45.432Z,30.03
2019-03-19T09:50:16.016Z,28.97
2019-03-19T09:52:48.552Z,29.80
2019-03-19T09:55:18.013Z,29.73
2019-03-19T09:57:46.997Z,29.07
2019-03-19T10:00:19.957Z,27.40
2019-03-19T10:03:01.087Z,28.40
2019-03-19T10:05:32.139Z,28.77
2019-03-19T10:08:12.350Z,27.90
2019-03-19T10:10:39.366Z,29.30
2019-03-19T10:13:08.328Z,29.03
2019-03-19T10:15:40.909Z,28.27
2019-03-19T10:18:15.175Z,28.07
2019-03-19T10:20:47.375Z,28.03
2019-03-19T10:23:16.472Z,28.43
2019-03-19T10:25:45.798Z,27.47
2019-03-19T10:28:17.635Z,26.90
2019-03-19T10:30:47.031Z,27.63
2019-03-19T10:33:21.390Z,26.83
2019-03-19T10:36:10.467Z,26.03
2019-03-19T10:38:43.075Z,26.40
2019-03-19T10:41:15.144Z,26.77
2019-03-19T10:43:44.482Z,24.93
2019-03-19T10:46:16.361Z,25.63
2019-03-19T10:48:46.088Z,25.37
2019-03-19T10:51:15.021Z,25.07
2019-03-19T10:53:44.090Z,24.87
2019-03-19T10:56:13.206Z,25.13
2019-03-19T10:58:53.697Z,24.33
2019-03-19T11:01:15.833Z,22.43
2019-03-19T11:03:45.388Z,23.30
2019-03-19T11:06:16.064Z,22.70
2019-03-19T11:08:59.803Z,21.43
2019-03-19T11:11:32.403Z,22.23
2019-03-19T11:14:01.568Z,22.30
2019-03-19T11:16:30.600Z,20.63
2019-03-19T11:18:59.928Z,21.37
2019-03-19T11:21:32.679Z,20.77
2019-03-19T11:24:02.732Z,20.70
2019-03-19T11:26:38.304Z,19.43
2019-03-19T11:29:26.502Z,20.23
2019-03-19T11:32:14.667Z,18.73
2019-03-19T11:34:43.818Z,18.47
2019-03-19T11:37:12.909Z,18.37
2019-03-19T11:39:43.029Z,18.47
2019-03-19T11:42:17.041Z,17.57
2019-03-19T11:44:46.218Z,18.33
2019-03-19T11:47:15.131Z,17.93
2019-03-19T11:49:44.149Z,16.57
2019-03-19T11:52:13.344Z,15.80
2019-03-19T11:54:44.278Z,16.40
2019-03-19T11:57:13.459Z,15.83
2019-03-19T11:59:42.490Z,15.47
2019-03-19T12:02:13.030Z,15.03
2019-03-19T12:04:44.099Z,14.40
2019-03-19T12:07:13.225Z,13.93
2019-03-19T12:09:44.221Z,13.90
2019-03-19T12:12:14.631Z,13.60
2019-03-19T12:15:02.772Z,12.80
2019-03-19T12:17:35.635Z,13.13
2019-03-19T12:20:05.516Z,12.60
2019-03-19T12:22:34.643Z,13.50
2019-03-19T12:25:03.952Z,12.13
2019-03-19T12:27:35.789Z,11.83
2019-03-19T12:30:06.028Z,11.70
2019-03-19T12:32:35.377Z,12.27
2019-03-19T12:35:09.288Z,11.23
2019-03-19T12:37:38.680Z,11.17
2019-03-19T12:40:09.411Z,10.97
2019-03-19T12:42:42.141Z,9.87
2019-03-19T12:45:18.035Z,10.17
2019-03-19T12:47:50.354Z,10.37
2019-03-19T12:50:19.890Z,9.73
2019-03-19T12:52:51.165Z,9.57
2019-03-19T12:55:20.130Z,9.30
2019-03-19T12:57:49.192Z,9.23
2019-03-19T13:00:20.128Z,9.00
2019-03-19T13:02:50.505Z,8.90
2019-03-19T13:05:29.201Z,8.37
2019-03-19T13:07:58.282Z,8.53
2019-03-19T13:10:27.792Z,8.33
2019-03-19T13:12:57.238Z,8.77
2019-03-19T13:18:10.939Z,7.80
2019-03-19T13:20:39.924Z,7.87
2019-03-19T13:23:09.307Z,8.10
2019-03-19T13:25:38.635Z,6.97
2019-03-19T13:28:07.839Z,6.90
2019-03-19T13:30:44.992Z,7.30
2019-03-19T13:33:09.460Z,7.27
2019-03-19T13:35:38.465Z,7.03
2019-03-19T13:38:09.617Z,7.97
2019-03-19T13:40:38.838Z,7.37
2019-03-19T13:43:09.722Z,8.07
2019-03-19T13:45:58.229Z,8.87
2019-03-19T13:48:32.251Z,9.47
2019-03-19T13:51:08.059Z,9.63
2019-03-19T13:53:39.157Z,10.13
2019-03-19T13:56:13.289Z,10.30
2019-03-19T13:58:42.719Z,10.60
2019-03-19T14:33:33.520Z,14.43
2019-03-19T14:36:02.744Z,15.17
2019-03-19T14:38:31.877Z,17.73
2019-03-19T14:43:54.653Z,17.53
2019-03-19T14:46:24.085Z,18.03
2019-03-19T14:49:04.122Z,19.07
2019-03-19T14:51:33.052Z,20.57
2019-03-19T14:54:02.274Z,21.93
2019-03-19T14:56:40.717Z,23.93
2019-03-19T14:59:12.383Z,25.67
2019-03-19T15:21:19.044Z,29.03
2019-03-19T15:23:48.882Z,29.27
2019-03-19T15:26:18.073Z,32.17
2019-03-19T15:28:53.241Z,32.80
2019-03-19T15:31:29.837Z,33.00
2019-03-19T15:34:12.435Z,34.00
2019-03-19T15:36:41.704Z,35.67
2019-03-19T15:39:15.567Z,36.53
2019-03-19T15:41:46.664Z,37.37
2019-03-19T15:44:16.984Z,39.70
2019-03-19T15:46:47.748Z,41.13
2019-03-19T15:51:57.928Z,44.13
2019-03-19T15:57:04.636Z,45.97
2019-03-19T16:18:48.245Z,47.27
2019-03-19T16:21:25.496Z,45.93
2019-03-19T16:24:16.693Z,44.87
2019-03-19T16:26:46.716Z,44.27
2019-03-19T16:29:17.611Z,43.77
2019-03-19T16:31:51.121Z,42.63
2019-03-19T16:37:11.046Z,39.13
2019-03-19T16:39:40.828Z,39.47
2019-03-19T16:42:20.895Z,39.33
2019-03-19T16:45:12.699Z,38.77
2019-03-19T16:47:42.037Z,37.67
2019-03-19T16:50:15.314Z,37.90
2019-03-19T16:53:00.871Z,37.03
2019-03-19T16:55:25.361Z,35.77
2019-03-19T16:57:59.578Z,35.07
2019-03-19T17:00:49.308Z,37.53
2019-03-19T17:25:52.502Z,39.63
2019-03-19T17:28:22.731Z,38.17
2019-03-19T17:31:02.755Z,39.47
2019-03-19T17:33:31.730Z,41.77
2019-03-19T17:38:38.903Z,40.33
2019-03-19T17:41:13.324Z,42.03
2019-03-19T17:43:43.355Z,41.03
2019-03-19T18:05:50.668Z,46.83
2019-03-19T18:14:30.756Z,45.40
2019-03-19T18:17:00.070Z,45.53
2019-03-19T18:19:33.725Z,42.97
2019-03-19T18:22:04.422Z,42.10
2019-03-19T18:27:15.648Z,39.17
2019-03-19T18:32:37.791Z,35.47
2019-03-19T18:35:08.438Z,35.63
2019-03-19T18:37:57.811Z,35.10
2019-03-19T18:40:27.372Z,36.93
2019-03-19T18:43:05.424Z,37.43
2019-03-19T18:45:38.447Z,37.13
2019-03-19T18:48:11.574Z,37.27
2019-03-19T18:50:46.056Z,36.37
2019-03-19T18:55:48.597Z,38.80
2019-03-19T18:58:17.924Z,38.43
2019-03-19T19:00:48.802Z,39.13
2019-03-19T19:03:20.463Z,40.83
2019-03-19T19:05:49.493Z,42.07
2019-03-19T19:08:31.453Z,42.27
2019-03-19T19:11:05.429Z,43.37
2019-03-19T19:13:34.854Z,42.23
2019-03-19T19:16:12.188Z,42.73
2019-03-19T19:18:43.084Z,43.20
2019-03-19T19:21:19.128Z,43.80
2019-03-19T19:23:56.562Z,42.50
2019-03-19T20:26:55.408Z,44.50
2019-03-19T20:29:26.580Z,45.40
2019-03-19T20:31:59.803Z,45.03
2019-03-19T20:34:45.617Z,45.53
2019-03-19T20:37:37.492Z,45.90
2019-03-19T20:40:11.065Z,44.87
2019-03-19T20:42:41.674Z,43.83
2019-03-19T20:45:14.811Z,42.07
2019-03-19T20:47:45.577Z,43.00
2019-03-19T20:50:39.342Z,43.23
2019-03-19T20:56:03.712Z,42.47
2019-03-19T20:59:01.026Z,43.07
2019-03-19T21:04:31.585Z,43.40
2019-03-19T21:06:59.941Z,43.33
2019-03-19T21:09:30.359Z,44.70
2019-03-19T21:12:03.210Z,46.50
2019-03-19T21:14:33.829Z,45.30
2019-03-19T21:17:07.401Z,43.83
2019-03-19T21:19:41.239Z,45.67
2019-03-19T21:22:17.003Z,45.53
2019-03-19T21:24:46.970Z,44.80
2019-03-19T21:27:16.518Z,43.70
2019-03-19T21:29:52.344Z,43.10
2019-03-19T21:32:23.377Z,44.17
2019-03-19T21:34:52.877Z,46.03
2019-03-19T21:37:21.927Z,45.40
2019-03-19T21:39:51.245Z,43.73
2019-03-19T21:42:20.470Z,43.93
2019-03-19T21:44:53.890Z,44.57
2019-03-19T21:47:23.938Z,42.80
2019-03-19T21:49:53.521Z,43.40
2019-03-19T21:52:23.100Z,43.30
2019-03-19T21:54:54.052Z,42.60
2019-03-19T21:57:29.899Z,42.90
2019-03-19T22:02:38.572Z,42.50
2019-03-19T22:05:11.547Z,40.83
2019-03-19T22:07:41.559Z,41.17
2019-03-19T22:10:13.761Z,41.07
2019-03-19T22:12:45.337Z,41.53
2019-03-19T22:15:16.047Z,41.40
2019-03-19T22:17:50.112Z,41.40
2019-03-19T22:20:20.557Z,41.63
2019-03-19T22:22:50.606Z,41.50
2019-03-19T22:25:23.518Z,41.07
2019-03-19T22:27:55.716Z,40.93
2019-03-19T22:30:33.857Z,41.00
2019-03-19T22:33:08.708Z,43.37
2019-03-19T22:35:43.901Z,43.07
2019-03-19T22:38:13.495Z,42.73
2019-03-19T22:40:42.871Z,43.47
2019-03-19T22:43:12.311Z,43.87
2019-03-19T22:46:02.749Z,44.40
2019-03-19T22:48:44.132Z,41.77
2019-03-19T22:51:14.334Z,42.33
2019-03-19T22:53:44.026Z,44.03
2019-03-19T22:56:16.735Z,46.30
2019-03-19T23:05:24.491Z,44.40
2019-03-19T23:07:58.078Z,45.00
2019-03-19T23:10:28.107Z,46.17
2019-03-19T23:13:11.800Z,45.97
2019-03-19T23:15:52.102Z,45.33
2019-03-19T23:18:22.299Z,45.77
2019-03-19T23:20:51.940Z,47.87
2019-03-19T23:23:27.241Z,47.07
2019-03-19T23:25:58.183Z,49.63
2019-03-19T23:28:35.705Z,47.60
2019-03-19T23:31:18.594Z,47.73
2019-03-19T23:36:40.560Z,49.33
2019-03-19T23:39:10.546Z,48.67
2019-03-19T23:41:39.742Z,50.53
2019-03-19T23:47:11.729Z,49.80
2019-03-19T23:49:45.297Z,50.30
2019-03-19T23:52:21.060Z,49.87
2019-03-19T23:54:50.213Z,50.23
2019-03-19T23:57:24.486Z,49.07
